sensor_id;sensor_type;location;lat;lon;timestamp;P1;durP1;ratioP1;P2;durP2;ratioP2
25982;SDS011;13773;48.868;10.730;2023-04-03T00:02:14;4.33;;;3.80;;
25982;SDS011;13773;48.868;10.730;2023-04-03T00:04:40;3.83;;;3.47;;
25982;SDS011;13773;48.868;10.730;2023-04-03T00:07:06;6.37;;;3.50;;
25982;SDS011;13773;48.868;10.730;2023-04-03T00:09:31;5.07;;;3.73;;
25982;SDS011;13773;48.868;10.730;2023-04-03T00:12:00;4.20;;;3.77;;
25982;SDS011;13773;48.868;10.730;2023-04-03T00:14:26;4.30;;;3.90;;
25982;SDS011;13773;48.868;10.730;2023-04-03T00:16:52;5.17;;;3.80;;
25982;SDS011;13773;48.868;10.730;2023-04-03T00:19:18;4.70;;;3.80;;
25982;SDS011;13773;48.868;10.730;2023-04-03T00:21:44;3.70;;;3.40;;
25982;SDS011;13773;48.868;10.730;2023-04-03T00:24:10;3.37;;;3.07;;
25982;SDS011;13773;48.868;10.730;2023-04-03T00:26:36;4.40;;;4.00;;
25982;SDS011;13773;48.868;10.730;2023-04-03T00:29:02;3.50;;;3.20;;
25982;SDS011;13773;48.868;10.730;2023-04-03T00:31:27;4.23;;;3.67;;
25982;SDS011;13773;48.868;10.730;2023-04-03T00:33:53;3.80;;;3.43;;
25982;SDS011;13773;48.868;10.730;2023-04-03T00:36:19;4.27;;;3.87;;
25982;SDS011;13773;48.868;10.730;2023-04-03T00:38:45;3.80;;;3.37;;
25982;SDS011;13773;48.868;10.730;2023-04-03T00:41:10;4.47;;;3.63;;
25982;SDS011;13773;48.868;10.730;2023-04-03T00:43:36;5.00;;;3.47;;
25982;SDS011;13773;48.868;10.730;2023-04-03T00:46:02;4.83;;;3.80;;
25982;SDS011;13773;48.868;10.730;2023-04-03T00:48:31;3.70;;;3.40;;
25982;SDS011;13773;48.868;10.730;2023-04-03T00:50:59;5.47;;;4.13;;
25982;SDS011;13773;48.868;10.730;2023-04-03T00:53:29;5.47;;;3.87;;
25982;SDS011;13773;48.868;10.730;2023-04-03T00:56:02;4.03;;;3.47;;
25982;SDS011;13773;48.868;10.730;2023-04-03T00:58:33;4.90;;;4.00;;
25982;SDS011;13773;48.868;10.730;2023-04-03T01:01:05;4.53;;;3.40;;
25982;SDS011;13773;48.868;10.730;2023-04-03T01:03:33;4.10;;;3.70;;
25982;SDS011;13773;48.868;10.730;2023-04-03T01:05:59;4.17;;;3.77;;
25982;SDS011;13773;48.868;10.730;2023-04-03T01:08:25;4.10;;;3.50;;
25982;SDS011;13773;48.868;10.730;2023-04-03T01:10:51;3.83;;;3.30;;
25982;SDS011;13773;48.868;10.730;2023-04-03T01:13:18;3.57;;;3.10;;
25982;SDS011;13773;48.868;10.730;2023-04-03T01:15:46;3.87;;;3.50;;
25982;SDS011;13773;48.868;10.730;2023-04-03T01:18:12;4.50;;;3.20;;
25982;SDS011;13773;48.868;10.730;2023-04-03T01:20:59;3.13;;;2.80;;
25982;SDS011;13773;48.868;10.730;2023-04-03T01:26:50;4.03;;;2.90;;
25982;SDS011;13773;48.868;10.730;2023-04-03T01:29:16;3.00;;;2.70;;
25982;SDS011;13773;48.868;10.730;2023-04-03T01:34:14;2.70;;;2.50;;
25982;SDS011;13773;48.868;10.730;2023-04-03T01:36:40;4.27;;;2.43;;
25982;SDS011;13773;48.868;10.730;2023-04-03T01:39:06;2.97;;;2.67;;
25982;SDS011;13773;48.868;10.730;2023-04-03T01:41:32;2.73;;;2.53;;
25982;SDS011;13773;48.868;10.730;2023-04-03T01:43:57;3.50;;;2.30;;
25982;SDS011;13773;48.868;10.730;2023-04-03T01:46:23;3.83;;;2.43;;
25982;SDS011;13773;48.868;10.730;2023-04-03T01:48:49;4.20;;;2.63;;
25982;SDS011;13773;48.868;10.730;2023-04-03T01:51:15;4.13;;;2.53;;
25982;SDS011;13773;48.868;10.730;2023-04-03T01:53:41;3.97;;;3.10;;
25982;SDS011;13773;48.868;10.730;2023-04-03T01:56:06;3.47;;;3.10;;
25982;SDS011;13773;48.868;10.730;2023-04-03T01:58:32;3.47;;;3.10;;
25982;SDS011;13773;48.868;10.730;2023-04-03T02:00:58;5.33;;;3.73;;
25982;SDS011;13773;48.868;10.730;2023-04-03T02:03:24;3.73;;;2.63;;
25982;SDS011;13773;48.868;10.730;2023-04-03T02:05:50;3.93;;;3.03;;
25982;SDS011;13773;48.868;10.730;2023-04-03T02:08:16;3.93;;;3.40;;
25982;SDS011;13773;48.868;10.730;2023-04-03T02:10:48;3.10;;;2.90;;
25982;SDS011;13773;48.868;10.730;2023-04-03T02:13:15;4.37;;;3.17;;
25982;SDS011;13773;48.868;10.730;2023-04-03T02:15:41;3.53;;;2.90;;
25982;SDS011;13773;48.868;10.730;2023-04-03T02:18:07;5.90;;;3.00;;
25982;SDS011;13773;48.868;10.730;2023-04-03T02:20:33;4.20;;;3.53;;
25982;SDS011;13773;48.868;10.730;2023-04-03T02:22:59;3.03;;;2.67;;
25982;SDS011;13773;48.868;10.730;2023-04-03T02:25:25;5.13;;;3.07;;
25982;SDS011;13773;48.868;10.730;2023-04-03T02:27:51;3.27;;;2.80;;
25982;SDS011;13773;48.868;10.730;2023-04-03T02:30:16;3.03;;;2.73;;
25982;SDS011;13773;48.868;10.730;2023-04-03T02:32:42;4.13;;;2.90;;
25982;SDS011;13773;48.868;10.730;2023-04-03T02:35:09;4.07;;;2.90;;
25982;SDS011;13773;48.868;10.730;2023-04-03T02:37:36;3.27;;;2.97;;
25982;SDS011;13773;48.868;10.730;2023-04-03T02:40:03;3.07;;;2.50;;
25982;SDS011;13773;48.868;10.730;2023-04-03T02:42:29;2.80;;;2.60;;
25982;SDS011;13773;48.868;10.730;2023-04-03T02:44:55;5.03;;;3.13;;
25982;SDS011;13773;48.868;10.730;2023-04-03T02:47:21;3.47;;;3.13;;
25982;SDS011;13773;48.868;10.730;2023-04-03T02:49:46;3.67;;;2.77;;
25982;SDS011;13773;48.868;10.730;2023-04-03T02:52:13;2.87;;;2.57;;
25982;SDS011;13773;48.868;10.730;2023-04-03T02:54:39;2.80;;;2.53;;
25982;SDS011;13773;48.868;10.730;2023-04-03T02:57:05;3.37;;;2.77;;
25982;SDS011;13773;48.868;10.730;2023-04-03T02:59:33;3.00;;;2.80;;
25982;SDS011;13773;48.868;10.730;2023-04-03T03:02:00;3.00;;;2.70;;
25982;SDS011;13773;48.868;10.730;2023-04-03T03:04:26;4.73;;;2.57;;
25982;SDS011;13773;48.868;10.730;2023-04-03T03:06:52;4.00;;;2.80;;
25982;SDS011;13773;48.868;10.730;2023-04-03T03:09:18;3.07;;;2.60;;
25982;SDS011;13773;48.868;10.730;2023-04-03T03:11:43;2.80;;;2.43;;
25982;SDS011;13773;48.868;10.730;2023-04-03T03:14:09;3.50;;;3.20;;
25982;SDS011;13773;48.868;10.730;2023-04-03T03:16:35;3.60;;;3.03;;
25982;SDS011;13773;48.868;10.730;2023-04-03T03:19:00;3.10;;;2.60;;
25982;SDS011;13773;48.868;10.730;2023-04-03T03:21:27;3.33;;;2.57;;
25982;SDS011;13773;48.868;10.730;2023-04-03T03:23:52;5.37;;;3.93;;
25982;SDS011;13773;48.868;10.730;2023-04-03T03:26:18;3.23;;;2.73;;
25982;SDS011;13773;48.868;10.730;2023-04-03T03:28:44;2.83;;;2.63;;
25982;SDS011;13773;48.868;10.730;2023-04-03T03:31:10;4.97;;;3.63;;
25982;SDS011;13773;48.868;10.730;2023-04-03T03:33:37;3.93;;;3.00;;
25982;SDS011;13773;48.868;10.730;2023-04-03T03:36:03;5.33;;;2.83;;
25982;SDS011;13773;48.868;10.730;2023-04-03T03:38:29;4.37;;;3.00;;
25982;SDS011;13773;48.868;10.730;2023-04-03T03:40:54;3.30;;;2.90;;
25982;SDS011;13773;48.868;10.730;2023-04-03T03:43:20;3.27;;;2.90;;
25982;SDS011;13773;48.868;10.730;2023-04-03T03:45:49;4.57;;;3.37;;
25982;SDS011;13773;48.868;10.730;2023-04-03T03:48:16;3.40;;;2.87;;
25982;SDS011;13773;48.868;10.730;2023-04-03T03:50:42;3.00;;;2.70;;
25982;SDS011;13773;48.868;10.730;2023-04-03T03:53:07;3.70;;;3.30;;
25982;SDS011;13773;48.868;10.730;2023-04-03T03:55:33;3.67;;;3.37;;
25982;SDS011;13773;48.868;10.730;2023-04-03T03:57:58;3.60;;;2.90;;
25982;SDS011;13773;48.868;10.730;2023-04-03T04:00:26;2.87;;;2.67;;
25982;SDS011;13773;48.868;10.730;2023-04-03T04:02:51;3.83;;;2.90;;
25982;SDS011;13773;48.868;10.730;2023-04-03T04:05:17;4.93;;;3.07;;
25982;SDS011;13773;48.868;10.730;2023-04-03T04:07:43;5.13;;;3.70;;
25982;SDS011;13773;48.868;10.730;2023-04-03T04:10:09;5.03;;;4.00;;
25982;SDS011;13773;48.868;10.730;2023-04-03T04:12:34;3.90;;;3.40;;
25982;SDS011;13773;48.868;10.730;2023-04-03T04:15:00;4.00;;;3.27;;
25982;SDS011;13773;48.868;10.730;2023-04-03T04:17:26;5.53;;;4.00;;
25982;SDS011;13773;48.868;10.730;2023-04-03T04:19:52;4.97;;;3.43;;
25982;SDS011;13773;48.868;10.730;2023-04-03T04:22:18;4.13;;;2.93;;
25982;SDS011;13773;48.868;10.730;2023-04-03T04:24:43;3.23;;;2.70;;
25982;SDS011;13773;48.868;10.730;2023-04-03T04:27:09;3.30;;;3.00;;
25982;SDS011;13773;48.868;10.730;2023-04-03T04:29:35;5.20;;;3.00;;
25982;SDS011;13773;48.868;10.730;2023-04-03T04:32:04;3.87;;;2.80;;
25982;SDS011;13773;48.868;10.730;2023-04-03T04:34:30;3.40;;;2.97;;
25982;SDS011;13773;48.868;10.730;2023-04-03T04:36:56;3.10;;;2.80;;
25982;SDS011;13773;48.868;10.730;2023-04-03T04:39:21;3.20;;;2.80;;
25982;SDS011;13773;48.868;10.730;2023-04-03T04:41:47;5.50;;;2.73;;
25982;SDS011;13773;48.868;10.730;2023-04-03T04:44:13;3.17;;;2.87;;
25982;SDS011;13773;48.868;10.730;2023-04-03T04:46:39;3.33;;;2.70;;
25982;SDS011;13773;48.868;10.730;2023-04-03T04:49:05;3.57;;;3.00;;
25982;SDS011;13773;48.868;10.730;2023-04-03T04:51:31;3.50;;;3.20;;
25982;SDS011;13773;48.868;10.730;2023-04-03T04:53:56;3.73;;;2.87;;
25982;SDS011;13773;48.868;10.730;2023-04-03T04:56:22;3.90;;;3.30;;
25982;SDS011;13773;48.868;10.730;2023-04-03T04:58:48;4.23;;;2.83;;
25982;SDS011;13773;48.868;10.730;2023-04-03T05:01:14;3.60;;;3.13;;
25982;SDS011;13773;48.868;10.730;2023-04-03T05:03:40;3.20;;;2.80;;
25982;SDS011;13773;48.868;10.730;2023-04-03T05:06:05;3.90;;;2.93;;
25982;SDS011;13773;48.868;10.730;2023-04-03T05:08:31;5.83;;;3.20;;
25982;SDS011;13773;48.868;10.730;2023-04-03T05:10:57;3.03;;;2.73;;
25982;SDS011;13773;48.868;10.730;2023-04-03T05:13:23;3.30;;;2.60;;
25982;SDS011;13773;48.868;10.730;2023-04-03T05:15:49;4.27;;;2.60;;
25982;SDS011;13773;48.868;10.730;2023-04-03T05:18:14;3.07;;;2.60;;
25982;SDS011;13773;48.868;10.730;2023-04-03T05:20:40;3.67;;;2.60;;
25982;SDS011;13773;48.868;10.730;2023-04-03T05:23:08;4.70;;;2.90;;
25982;SDS011;13773;48.868;10.730;2023-04-03T05:25:36;2.87;;;2.60;;
25982;SDS011;13773;48.868;10.730;2023-04-03T05:28:03;3.73;;;3.00;;
25982;SDS011;13773;48.868;10.730;2023-04-03T05:30:28;5.33;;;2.87;;
25982;SDS011;13773;48.868;10.730;2023-04-03T05:32:54;4.67;;;2.80;;
25982;SDS011;13773;48.868;10.730;2023-04-03T05:35:20;2.70;;;2.43;;
25982;SDS011;13773;48.868;10.730;2023-04-03T05:37:46;3.23;;;2.93;;
25982;SDS011;13773;48.868;10.730;2023-04-03T05:40:12;5.27;;;3.20;;
25982;SDS011;13773;48.868;10.730;2023-04-03T05:42:38;3.10;;;2.80;;
25982;SDS011;13773;48.868;10.730;2023-04-03T05:45:03;4.53;;;2.93;;
25982;SDS011;13773;48.868;10.730;2023-04-03T05:47:30;4.87;;;3.00;;
25982;SDS011;13773;48.868;10.730;2023-04-03T05:49:56;3.47;;;2.93;;
25982;SDS011;13773;48.868;10.730;2023-04-03T05:52:28;4.07;;;3.10;;
25982;SDS011;13773;48.868;10.730;2023-04-03T05:54:56;4.13;;;2.80;;
25982;SDS011;13773;48.868;10.730;2023-04-03T05:57:22;4.57;;;2.70;;
25982;SDS011;13773;48.868;10.730;2023-04-03T05:59:48;4.90;;;2.73;;
25982;SDS011;13773;48.868;10.730;2023-04-03T06:02:16;6.33;;;2.77;;
25982;SDS011;13773;48.868;10.730;2023-04-03T06:04:43;6.20;;;3.10;;
25982;SDS011;13773;48.868;10.730;2023-04-03T06:07:11;3.37;;;3.00;;
25982;SDS011;13773;48.868;10.730;2023-04-03T06:09:38;3.53;;;2.93;;
25982;SDS011;13773;48.868;10.730;2023-04-03T06:12:04;3.53;;;2.90;;
25982;SDS011;13773;48.868;10.730;2023-04-03T06:14:29;5.77;;;3.10;;
25982;SDS011;13773;48.868;10.730;2023-04-03T06:16:55;7.20;;;3.43;;
25982;SDS011;13773;48.868;10.730;2023-04-03T06:19:21;4.63;;;3.37;;
25982;SDS011;13773;48.868;10.730;2023-04-03T06:21:47;3.40;;;2.90;;
25982;SDS011;13773;48.868;10.730;2023-04-03T06:24:14;4.30;;;3.07;;
25982;SDS011;13773;48.868;10.730;2023-04-03T06:26:41;5.00;;;3.27;;
25982;SDS011;13773;48.868;10.730;2023-04-03T06:29:08;4.53;;;2.97;;
25982;SDS011;13773;48.868;10.730;2023-04-03T06:31:34;3.90;;;3.13;;
25982;SDS011;13773;48.868;10.730;2023-04-03T06:34:01;6.97;;;3.57;;
25982;SDS011;13773;48.868;10.730;2023-04-03T06:36:28;3.63;;;2.60;;
25982;SDS011;13773;48.868;10.730;2023-04-03T06:38:54;5.37;;;3.80;;
25982;SDS011;13773;48.868;10.730;2023-04-03T06:41:20;4.00;;;3.00;;
25982;SDS011;13773;48.868;10.730;2023-04-03T06:43:46;4.20;;;2.90;;
25982;SDS011;13773;48.868;10.730;2023-04-03T06:46:20;4.57;;;3.23;;
25982;SDS011;13773;48.868;10.730;2023-04-03T06:48:47;4.60;;;3.63;;
25982;SDS011;13773;48.868;10.730;2023-04-03T06:51:22;6.53;;;3.27;;
25982;SDS011;13773;48.868;10.730;2023-04-03T06:53:51;5.23;;;3.60;;
25982;SDS011;13773;48.868;10.730;2023-04-03T06:56:18;4.27;;;3.07;;
25982;SDS011;13773;48.868;10.730;2023-04-03T06:58:44;6.13;;;3.07;;
25982;SDS011;13773;48.868;10.730;2023-04-03T07:01:11;2.77;;;2.57;;
25982;SDS011;13773;48.868;10.730;2023-04-03T07:03:39;4.27;;;3.33;;
25982;SDS011;13773;48.868;10.730;2023-04-03T07:06:06;6.20;;;3.90;;
25982;SDS011;13773;48.868;10.730;2023-04-03T07:08:33;3.80;;;3.10;;
25982;SDS011;13773;48.868;10.730;2023-04-03T07:10:59;3.50;;;3.13;;
25982;SDS011;13773;48.868;10.730;2023-04-03T07:13:25;5.27;;;3.13;;
25982;SDS011;13773;48.868;10.730;2023-04-03T07:15:51;5.33;;;3.70;;
25982;SDS011;13773;48.868;10.730;2023-04-03T07:18:17;3.43;;;2.97;;
25982;SDS011;13773;48.868;10.730;2023-04-03T07:20:43;4.13;;;3.30;;
25982;SDS011;13773;48.868;10.730;2023-04-03T07:23:09;7.13;;;3.20;;
25982;SDS011;13773;48.868;10.730;2023-04-03T07:25:35;5.30;;;3.20;;
25982;SDS011;13773;48.868;10.730;2023-04-03T07:28:02;5.53;;;3.63;;
25982;SDS011;13773;48.868;10.730;2023-04-03T07:30:29;6.87;;;3.67;;
25982;SDS011;13773;48.868;10.730;2023-04-03T07:32:54;4.60;;;3.37;;
25982;SDS011;13773;48.868;10.730;2023-04-03T07:35:20;5.37;;;3.50;;
25982;SDS011;13773;48.868;10.730;2023-04-03T07:37:46;6.17;;;4.30;;
25982;SDS011;13773;48.868;10.730;2023-04-03T07:40:11;5.33;;;3.37;;
25982;SDS011;13773;48.868;10.730;2023-04-03T07:42:37;3.93;;;3.03;;
25982;SDS011;13773;48.868;10.730;2023-04-03T07:45:03;6.33;;;3.50;;
25982;SDS011;13773;48.868;10.730;2023-04-03T07:47:29;5.00;;;3.43;;
25982;SDS011;13773;48.868;10.730;2023-04-03T07:49:56;4.30;;;3.17;;
25982;SDS011;13773;48.868;10.730;2023-04-03T07:52:22;3.97;;;3.13;;
25982;SDS011;13773;48.868;10.730;2023-04-03T07:54:48;5.13;;;3.60;;
25982;SDS011;13773;48.868;10.730;2023-04-03T07:57:14;5.40;;;3.83;;
25982;SDS011;13773;48.868;10.730;2023-04-03T07:59:39;4.60;;;3.37;;
25982;SDS011;13773;48.868;10.730;2023-04-03T08:02:09;4.70;;;3.13;;
25982;SDS011;13773;48.868;10.730;2023-04-03T08:04:35;4.10;;;3.40;;
25982;SDS011;13773;48.868;10.730;2023-04-03T08:07:01;4.70;;;3.53;;
25982;SDS011;13773;48.868;10.730;2023-04-03T08:09:26;6.10;;;3.50;;
25982;SDS011;13773;48.868;10.730;2023-04-03T08:11:52;3.93;;;3.50;;
25982;SDS011;13773;48.868;10.730;2023-04-03T08:14:18;5.77;;;3.93;;
25982;SDS011;13773;48.868;10.730;2023-04-03T08:16:45;6.03;;;3.20;;
25982;SDS011;13773;48.868;10.730;2023-04-03T08:19:12;3.83;;;3.40;;
25982;SDS011;13773;48.868;10.730;2023-04-03T08:21:42;4.37;;;3.40;;
25982;SDS011;13773;48.868;10.730;2023-04-03T08:24:08;4.67;;;3.30;;
25982;SDS011;13773;48.868;10.730;2023-04-03T08:26:34;3.70;;;3.40;;
25982;SDS011;13773;48.868;10.730;2023-04-03T08:29:00;5.70;;;4.03;;
25982;SDS011;13773;48.868;10.730;2023-04-03T08:31:26;4.87;;;3.47;;
25982;SDS011;13773;48.868;10.730;2023-04-03T08:33:52;4.40;;;3.20;;
25982;SDS011;13773;48.868;10.730;2023-04-03T08:36:25;4.13;;;3.53;;
25982;SDS011;13773;48.868;10.730;2023-04-03T08:38:53;4.83;;;3.50;;
25982;SDS011;13773;48.868;10.730;2023-04-03T08:46:52;4.83;;;3.20;;
25982;SDS011;13773;48.868;10.730;2023-04-03T08:52:10;4.20;;;2.90;;
25982;SDS011;13773;48.868;10.730;2023-04-03T08:57:41;4.50;;;3.13;;
25982;SDS011;13773;48.868;10.730;2023-04-03T09:00:17;4.07;;;3.40;;
25982;SDS011;13773;48.868;10.730;2023-04-03T09:05:13;3.87;;;2.90;;
25982;SDS011;13773;48.868;10.730;2023-04-03T09:07:45;4.57;;;3.10;;
25982;SDS011;13773;48.868;10.730;2023-04-03T09:10:23;6.63;;;3.70;;
25982;SDS011;13773;48.868;10.730;2023-04-03T09:13:05;4.30;;;3.03;;
25982;SDS011;13773;48.868;10.730;2023-04-03T09:15:56;3.57;;;2.53;;
25982;SDS011;13773;48.868;10.730;2023-04-03T09:18:25;3.67;;;2.70;;
25982;SDS011;13773;48.868;10.730;2023-04-03T09:23:57;3.60;;;2.27;;
25982;SDS011;13773;48.868;10.730;2023-04-03T09:26:26;3.47;;;2.43;;
25982;SDS011;13773;48.868;10.730;2023-04-03T09:29:21;4.47;;;2.60;;
25982;SDS011;13773;48.868;10.730;2023-04-03T09:31:59;3.97;;;2.47;;
25982;SDS011;13773;48.868;10.730;2023-04-03T09:34:27;3.63;;;2.67;;
25982;SDS011;13773;48.868;10.730;2023-04-03T09:36:58;2.60;;;2.30;;
25982;SDS011;13773;48.868;10.730;2023-04-03T09:39:30;3.17;;;2.30;;
25982;SDS011;13773;48.868;10.730;2023-04-03T09:42:02;4.13;;;2.47;;
25982;SDS011;13773;48.868;10.730;2023-04-03T09:44:41;3.87;;;2.63;;
25982;SDS011;13773;48.868;10.730;2023-04-03T09:47:24;2.73;;;2.40;;
25982;SDS011;13773;48.868;10.730;2023-04-03T09:50:10;3.60;;;2.40;;
25982;SDS011;13773;48.868;10.730;2023-04-03T09:52:47;2.77;;;2.30;;
25982;SDS011;13773;48.868;10.730;2023-04-03T09:55:20;4.17;;;2.23;;
25982;SDS011;13773;48.868;10.730;2023-04-03T09:57:52;4.27;;;2.33;;
25982;SDS011;13773;48.868;10.730;2023-04-03T10:00:38;3.83;;;1.97;;
25982;SDS011;13773;48.868;10.730;2023-04-03T10:03:05;2.70;;;1.70;;
25982;SDS011;13773;48.868;10.730;2023-04-03T10:06:00;3.40;;;2.10;;
25982;SDS011;13773;48.868;10.730;2023-04-03T10:08:32;3.90;;;2.50;;
25982;SDS011;13773;48.868;10.730;2023-04-03T10:11:16;3.43;;;2.10;;
25982;SDS011;13773;48.868;10.730;2023-04-03T10:13:57;2.93;;;2.00;;
25982;SDS011;13773;48.868;10.730;2023-04-03T10:16:26;2.53;;;1.50;;
25982;SDS011;13773;48.868;10.730;2023-04-03T10:26:49;2.53;;;2.07;;
25982;SDS011;13773;48.868;10.730;2023-04-03T10:33:00;2.63;;;2.23;;
25982;SDS011;13773;48.868;10.730;2023-04-03T10:35:39;2.77;;;1.80;;
25982;SDS011;13773;48.868;10.730;2023-04-03T10:38:23;3.53;;;2.67;;
25982;SDS011;13773;48.868;10.730;2023-04-03T10:46:47;3.40;;;2.33;;
25982;SDS011;13773;48.868;10.730;2023-04-03T10:54:37;3.10;;;2.47;;
25982;SDS011;13773;48.868;10.730;2023-04-03T10:57:07;2.00;;;1.90;;
25982;SDS011;13773;48.868;10.730;2023-04-03T10:59:37;4.17;;;2.40;;
25982;SDS011;13773;48.868;10.730;2023-04-03T11:05:07;2.77;;;2.10;;
25982;SDS011;13773;48.868;10.730;2023-04-03T11:07:43;5.37;;;3.03;;
25982;SDS011;13773;48.868;10.730;2023-04-03T11:10:24;3.53;;;2.43;;
25982;SDS011;13773;48.868;10.730;2023-04-03T11:13:15;3.00;;;2.13;;
25982;SDS011;13773;48.868;10.730;2023-04-03T11:15:47;2.77;;;2.10;;
25982;SDS011;13773;48.868;10.730;2023-04-03T11:18:18;2.00;;;1.83;;
25982;SDS011;13773;48.868;10.730;2023-04-03T11:24:00;3.43;;;2.10;;
25982;SDS011;13773;48.868;10.730;2023-04-03T11:26:35;3.13;;;1.93;;
25982;SDS011;13773;48.868;10.730;2023-04-03T11:29:08;2.47;;;1.80;;
25982;SDS011;13773;48.868;10.730;2023-04-03T11:34:37;3.20;;;1.97;;
25982;SDS011;13773;48.868;10.730;2023-04-03T11:37:17;3.73;;;2.13;;
25982;SDS011;13773;48.868;10.730;2023-04-03T11:39:58;3.07;;;2.60;;
25982;SDS011;13773;48.868;10.730;2023-04-03T11:42:33;3.20;;;2.17;;
25982;SDS011;13773;48.868;10.730;2023-04-03T11:47:52;4.53;;;2.40;;
25982;SDS011;13773;48.868;10.730;2023-04-03T12:27:02;2.13;;;1.80;;
25982;SDS011;13773;48.868;10.730;2023-04-03T12:29:46;2.67;;;2.03;;
25982;SDS011;13773;48.868;10.730;2023-04-03T12:37:44;2.17;;;1.77;;
25982;SDS011;13773;48.868;10.730;2023-04-03T12:41:19;2.70;;;1.53;;
25982;SDS011;13773;48.868;10.730;2023-04-03T12:46:23;2.67;;;1.60;;
25982;SDS011;13773;48.868;10.730;2023-04-03T12:48:55;2.03;;;1.30;;
25982;SDS011;13773;48.868;10.730;2023-04-03T12:54:19;2.63;;;2.07;;
25982;SDS011;13773;48.868;10.730;2023-04-03T12:57:10;1.67;;;1.47;;
25982;SDS011;13773;48.868;10.730;2023-04-03T12:59:38;2.67;;;1.97;;
25982;SDS011;13773;48.868;10.730;2023-04-03T13:02:10;3.10;;;2.00;;
25982;SDS011;13773;48.868;10.730;2023-04-03T13:04:46;4.37;;;2.50;;
25982;SDS011;13773;48.868;10.730;2023-04-03T13:07:19;4.47;;;2.17;;
25982;SDS011;13773;48.868;10.730;2023-04-03T13:10:02;3.23;;;2.30;;
25982;SDS011;13773;48.868;10.730;2023-04-03T13:12:32;2.60;;;2.10;;
25982;SDS011;13773;48.868;10.730;2023-04-03T13:17:52;4.47;;;2.10;;
25982;SDS011;13773;48.868;10.730;2023-04-03T13:20:24;2.60;;;2.10;;
25982;SDS011;13773;48.868;10.730;2023-04-03T13:25:34;3.00;;;1.83;;
25982;SDS011;13773;48.868;10.730;2023-04-03T13:28:02;2.80;;;1.90;;
25982;SDS011;13773;48.868;10.730;2023-04-03T13:30:34;2.37;;;1.70;;
25982;SDS011;13773;48.868;10.730;2023-04-03T13:33:03;2.20;;;1.90;;
25982;SDS011;13773;48.868;10.730;2023-04-03T13:35:33;2.37;;;1.83;;
25982;SDS011;13773;48.868;10.730;2023-04-03T13:38:03;3.60;;;2.03;;
25982;SDS011;13773;48.868;10.730;2023-04-03T13:40:53;2.50;;;1.70;;
25982;SDS011;13773;48.868;10.730;2023-04-03T13:43:29;2.77;;;1.90;;
25982;SDS011;13773;48.868;10.730;2023-04-03T13:46:05;2.80;;;1.80;;
25982;SDS011;13773;48.868;10.730;2023-04-03T13:48:36;1.70;;;1.60;;
25982;SDS011;13773;48.868;10.730;2023-04-03T13:51:16;2.33;;;1.87;;
25982;SDS011;13773;48.868;10.730;2023-04-03T13:53:46;1.80;;;1.60;;
25982;SDS011;13773;48.868;10.730;2023-04-03T13:56:29;3.37;;;1.93;;
25982;SDS011;13773;48.868;10.730;2023-04-03T14:01:46;2.13;;;1.90;;
25982;SDS011;13773;48.868;10.730;2023-04-03T14:04:44;3.13;;;2.30;;
25982;SDS011;13773;48.868;10.730;2023-04-03T14:07:10;3.43;;;1.80;;
25982;SDS011;13773;48.868;10.730;2023-04-03T14:09:36;3.37;;;1.57;;
25982;SDS011;13773;48.868;10.730;2023-04-03T14:12:46;2.67;;;1.67;;
25982;SDS011;13773;48.868;10.730;2023-04-03T14:14:59;1.63;;;1.50;;
25982;SDS011;13773;48.868;10.730;2023-04-03T14:17:26;2.27;;;1.63;;
25982;SDS011;13773;48.868;10.730;2023-04-03T14:19:53;2.00;;;1.50;;
25982;SDS011;13773;48.868;10.730;2023-04-03T14:24:50;2.17;;;1.60;;
25982;SDS011;13773;48.868;10.730;2023-04-03T14:27:18;3.00;;;1.90;;
25982;SDS011;13773;48.868;10.730;2023-04-03T14:29:46;2.97;;;2.03;;
25982;SDS011;13773;48.868;10.730;2023-04-03T14:32:14;3.70;;;2.00;;
25982;SDS011;13773;48.868;10.730;2023-04-03T14:34:41;2.90;;;1.80;;
25982;SDS011;13773;48.868;10.730;2023-04-03T14:37:18;3.03;;;1.97;;
25982;SDS011;13773;48.868;10.730;2023-04-03T14:39:46;2.40;;;2.10;;
25982;SDS011;13773;48.868;10.730;2023-04-03T14:42:13;2.83;;;1.80;;
25982;SDS011;13773;48.868;10.730;2023-04-03T14:44:41;2.13;;;1.63;;
25982;SDS011;13773;48.868;10.730;2023-04-03T14:47:14;3.43;;;2.20;;
25982;SDS011;13773;48.868;10.730;2023-04-03T14:49:43;3.60;;;1.73;;
25982;SDS011;13773;48.868;10.730;2023-04-03T14:52:31;1.60;;;1.40;;
25982;SDS011;13773;48.868;10.730;2023-04-03T14:54:57;1.80;;;1.60;;
25982;SDS011;13773;48.868;10.730;2023-04-03T14:57:24;2.20;;;1.63;;
25982;SDS011;13773;48.868;10.730;2023-04-03T14:59:51;1.83;;;1.63;;
25982;SDS011;13773;48.868;10.730;2023-04-03T15:04:45;4.10;;;1.60;;
25982;SDS011;13773;48.868;10.730;2023-04-03T15:07:11;1.93;;;1.30;;
25982;SDS011;13773;48.868;10.730;2023-04-03T15:09:37;3.43;;;2.40;;
25982;SDS011;13773;48.868;10.730;2023-04-03T15:12:02;2.10;;;1.50;;
25982;SDS011;13773;48.868;10.730;2023-04-03T15:14:28;4.23;;;2.60;;
25982;SDS011;13773;48.868;10.730;2023-04-03T15:16:54;3.63;;;1.87;;
25982;SDS011;13773;48.868;10.730;2023-04-03T15:19:20;3.70;;;1.80;;
25982;SDS011;13773;48.868;10.730;2023-04-03T15:21:45;3.17;;;2.10;;
25982;SDS011;13773;48.868;10.730;2023-04-03T15:24:11;1.43;;;1.30;;
25982;SDS011;13773;48.868;10.730;2023-04-03T15:26:37;3.07;;;1.80;;
25982;SDS011;13773;48.868;10.730;2023-04-03T15:29:03;1.73;;;1.33;;
25982;SDS011;13773;48.868;10.730;2023-04-03T15:31:29;1.90;;;1.40;;
25982;SDS011;13773;48.868;10.730;2023-04-03T15:33:55;2.33;;;1.40;;
25982;SDS011;13773;48.868;10.730;2023-04-03T15:36:20;2.00;;;1.60;;
25982;SDS011;13773;48.868;10.730;2023-04-03T15:38:46;4.00;;;1.90;;
25982;SDS011;13773;48.868;10.730;2023-04-03T15:41:12;3.80;;;2.17;;
25982;SDS011;13773;48.868;10.730;2023-04-03T15:43:38;4.97;;;2.00;;
25982;SDS011;13773;48.868;10.730;2023-04-03T15:46:03;3.37;;;1.73;;
25982;SDS011;13773;48.868;10.730;2023-04-03T15:48:29;2.43;;;1.70;;
25982;SDS011;13773;48.868;10.730;2023-04-03T15:50:55;3.20;;;1.50;;
25982;SDS011;13773;48.868;10.730;2023-04-03T15:53:21;3.53;;;1.97;;
25982;SDS011;13773;48.868;10.730;2023-04-03T15:55:47;2.10;;;1.73;;
25982;SDS011;13773;48.868;10.730;2023-04-03T15:58:12;3.63;;;1.70;;
25982;SDS011;13773;48.868;10.730;2023-04-03T16:00:38;1.83;;;1.40;;
25982;SDS011;13773;48.868;10.730;2023-04-03T16:03:05;2.23;;;1.40;;
25982;SDS011;13773;48.868;10.730;2023-04-03T16:05:37;2.63;;;1.80;;
25982;SDS011;13773;48.868;10.730;2023-04-03T16:08:04;1.83;;;1.40;;
25982;SDS011;13773;48.868;10.730;2023-04-03T16:10:31;1.67;;;1.30;;
25982;SDS011;13773;48.868;10.730;2023-04-03T16:12:57;2.23;;;1.60;;
25982;SDS011;13773;48.868;10.730;2023-04-03T16:15:23;5.30;;;2.50;;
25982;SDS011;13773;48.868;10.730;2023-04-03T16:17:49;2.50;;;1.57;;
25982;SDS011;13773;48.868;10.730;2023-04-03T16:20:16;4.30;;;2.60;;
25982;SDS011;13773;48.868;10.730;2023-04-03T16:22:43;3.67;;;2.80;;
25982;SDS011;13773;48.868;10.730;2023-04-03T16:25:09;4.17;;;2.53;;
25982;SDS011;13773;48.868;10.730;2023-04-03T16:27:35;3.53;;;2.03;;
25982;SDS011;13773;48.868;10.730;2023-04-03T16:30:01;2.83;;;1.77;;
25982;SDS011;13773;48.868;10.730;2023-04-03T16:32:28;4.27;;;2.10;;
25982;SDS011;13773;48.868;10.730;2023-04-03T16:34:55;2.23;;;1.87;;
25982;SDS011;13773;48.868;10.730;2023-04-03T16:37:21;4.10;;;1.87;;
25982;SDS011;13773;48.868;10.730;2023-04-03T16:39:47;2.53;;;1.40;;
25982;SDS011;13773;48.868;10.730;2023-04-03T16:42:13;2.37;;;1.30;;